Kate Golding — WDH7802 — position and weather

sailwx.info

Track history (hours):
 
Tides and Currents Weather Stations Pressure Air Temp Water Temp Dewpoint Dewpoint Depression Visibility Wind Speed Wind Dir Waves Ship Positions

Kate Golding

Owner: GOLDING BARGE LINE, INC, VICKSBURG, MS. More information available from US FCC via Universal Licensing System and Coast Guard Vessel Documentation Center.

Last reported at 2017-Oct-09 19:09 UTC. Time now 2017-Oct-19 16:31 UTC.
Position N 29°30' W 094°52'.
Warning: this ship's position is 9 days out of date.

Length 121 m; draft 2.4 m.

Type: . MMSI: 367651810.

Date/timePositionNaut miles runAvg speedWind from/ knotsBaromVisibWave heightAir tempDewpointWater temp
2017-Oct-09 19:09N 29°30' W 094°52'1 8.6
2017-Oct-09 19:00N 29°31' W 094°53'4 8.1
2017-Oct-09 18:30N 29°35' W 094°56'4 7.8
2017-Oct-09 18:00N 29°38' W 094°58'4 8.4
2017-Oct-09 17:30N 29°42' W 094°60'4 7.3
2017-Oct-09 17:00N 29°44' W 095°03'  
2017-Oct-07 10:20N 29°47' W 095°06'1 0.0
2017-Oct-06 06:00N 29°46' W 095°05'0 0.0
2017-Oct-04 19:35N 29°46' W 095°05'3 6.0
2017-Oct-04 19:08N 29°44' W 095°08'2 5.6
2017-Oct-04 18:51N 29°44' W 095°10'0 0.2
2017-Oct-04 18:01N 29°44' W 095°10'0 0.0
2017-Oct-04 18:00N 29°44' W 095°10'4 4.9
2017-Oct-04 17:12N 29°46' W 095°06'2 0.4
2017-Oct-04 12:31N 29°44' W 095°07'2 6.5
2017-Oct-04 12:11N 29°44' W 095°09'1 0.1
2017-Oct-04 02:25N 29°44' W 095°10'0 0.0
2017-Oct-04 01:49N 29°44' W 095°10'1 0.3
2017-Oct-03 22:35N 29°44' W 095°09'0 3.9
2017-Oct-03 22:31N 29°44' W 095°08'5 1.2
2017-Oct-03 18:31N 29°44' W 095°03'0 5.8
2017-Oct-03 18:30N 29°44' W 095°03'2 4.7
2017-Oct-03 18:00N 29°42' W 095°01'3 5.6
2017-Oct-03 17:30N 29°40' W 094°59'3 6.8
2017-Oct-03 17:00N 29°37' W 094°57'3 6.9
2017-Oct-03 16:30N 29°34' W 094°55'3 6.8
2017-Oct-03 16:00N 29°31' W 094°53'  
2017-Sep-29 20:54N 29°44' W 095°03'  
Track history (hours):
 
Tides and Currents Weather Stations Pressure Air Temp Water Temp Dewpoint Dewpoint Depression Visibility Wind Speed Wind Dir Waves Ship Positions

Kate Golding

Owner: GOLDING BARGE LINE, INC, VICKSBURG, MS. More information available from US FCC via Universal Licensing System and Coast Guard Vessel Documentation Center.

Last reported at 2017-Oct-09 19:09 UTC. Time now 2017-Oct-19 16:31 UTC.
Position N 29°30' W 094°52'.
Warning: this ship's position is 9 days out of date.

Length 121 m; draft 2.4 m.

Type: . MMSI: 367651810.

Date/timePositionNaut miles runAvg speedWind from/ knotsBaromVisibWave heightAir tempDewpointWater temp
2017-Oct-09 19:09N 29°30' W 094°52'1 8.6
2017-Oct-09 19:00N 29°31' W 094°53'4 8.1
2017-Oct-09 18:30N 29°35' W 094°56'4 7.8
2017-Oct-09 18:00N 29°38' W 094°58'4 8.4
2017-Oct-09 17:30N 29°42' W 094°60'4 7.3
2017-Oct-09 17:00N 29°44' W 095°03'  
2017-Oct-07 10:20N 29°47' W 095°06'1 0.0
2017-Oct-06 06:00N 29°46' W 095°05'0 0.0
2017-Oct-04 19:35N 29°46' W 095°05'3 6.0
2017-Oct-04 19:08N 29°44' W 095°08'2 5.6
2017-Oct-04 18:51N 29°44' W 095°10'0 0.2
2017-Oct-04 18:01N 29°44' W 095°10'0 0.0
2017-Oct-04 18:00N 29°44' W 095°10'4 4.9
2017-Oct-04 17:12N 29°46' W 095°06'2 0.4
2017-Oct-04 12:31N 29°44' W 095°07'2 6.5
2017-Oct-04 12:11N 29°44' W 095°09'1 0.1
2017-Oct-04 02:25N 29°44' W 095°10'0 0.0
2017-Oct-04 01:49N 29°44' W 095°10'1 0.3
2017-Oct-03 22:35N 29°44' W 095°09'0 3.9
2017-Oct-03 22:31N 29°44' W 095°08'5 1.2
2017-Oct-03 18:31N 29°44' W 095°03'0 5.8
2017-Oct-03 18:30N 29°44' W 095°03'2 4.7
2017-Oct-03 18:00N 29°42' W 095°01'3 5.6
2017-Oct-03 17:30N 29°40' W 094°59'3 6.8
2017-Oct-03 17:00N 29°37' W 094°57'3 6.9
2017-Oct-03 16:30N 29°34' W 094°55'3 6.8
2017-Oct-03 16:00N 29°31' W 094°53'  
2017-Sep-29 20:54N 29°44' W 095°03'  

Dump ship's entire track history